createdAt,value
2023-02-13T00:00:34.481Z,41.30
2023-02-13T00:03:01.963Z,45.78
2023-02-13T00:05:29.163Z,44.65
2023-02-13T00:07:57.344Z,41.35
2023-02-13T00:10:24.699Z,40.15
2023-02-13T00:12:51.601Z,41.00
2023-02-13T00:15:18.877Z,44.10
2023-02-13T00:17:45.714Z,43.72
2023-02-13T00:20:13.318Z,42.15
2023-02-13T00:22:40.947Z,52.80
2023-02-13T00:25:08.647Z,41.28
2023-02-13T00:27:35.943Z,42.25
2023-02-13T00:30:05.054Z,41.70
2023-02-13T00:32:32.717Z,43.92
2023-02-13T00:34:59.898Z,37.92
2023-02-13T00:37:26.743Z,33.10
2023-02-13T00:39:54.083Z,37.72
2023-02-13T00:42:24.159Z,38.63
2023-02-13T00:44:51.371Z,43.17
2023-02-13T00:47:18.837Z,38.55
2023-02-13T00:49:45.713Z,39.75
2023-02-13T00:52:13.016Z,40.03
2023-02-13T00:54:40.312Z,32.90
2023-02-13T00:57:07.519Z,34.72
2023-02-13T00:59:34.365Z,37.92
2023-02-13T01:02:01.627Z,43.15
2023-02-13T01:04:28.826Z,37.17
2023-02-13T01:06:55.643Z,37.80
2023-02-13T01:09:22.928Z,38.08
2023-02-13T01:11:49.934Z,43.10
2023-02-13T01:14:17.287Z,36.25
2023-02-13T01:16:44.127Z,40.80
2023-02-13T01:19:11.350Z,40.38
2023-02-13T01:21:38.557Z,41.72
2023-02-13T01:24:06.448Z,42.42
2023-02-13T01:26:33.277Z,38.45
2023-02-13T01:29:00.911Z,46.63
2023-02-13T01:31:28.484Z,44.70
2023-02-13T01:33:59.257Z,44.50
2023-02-13T01:36:27.160Z,49.28
2023-02-13T01:38:56.628Z,46.67
2023-02-13T01:41:25.207Z,45.42
2023-02-13T01:43:58.046Z,43.00
2023-02-13T01:46:30.937Z,47.88
2023-02-13T01:49:25.578Z,45.17
2023-02-13T01:51:56.029Z,47.22
2023-02-13T01:54:31.669Z,41.47
2023-02-13T01:57:06.927Z,47.53
2023-02-13T01:59:40.725Z,50.83
2023-02-13T02:02:08.252Z,47.10
2023-02-13T02:04:38.597Z,44.65
2023-02-13T02:07:11.312Z,45.88
2023-02-13T02:09:40.782Z,43.67
2023-02-13T02:12:32.075Z,48.17
2023-02-13T02:15:01.447Z,47.47
2023-02-13T02:17:28.630Z,42.20
2023-02-13T02:20:18.144Z,42.97
2023-02-13T02:23:22.732Z,44.83
2023-02-13T02:25:58.509Z,51.53
2023-02-13T02:28:59.773Z,41.53
2023-02-13T02:31:47.499Z,45.35
2023-02-13T02:34:50.627Z,49.30
2023-02-13T02:37:39.028Z,42.88
2023-02-13T02:40:06.214Z,38.95
2023-02-13T02:42:33.411Z,43.67
2023-02-13T02:45:08.966Z,46.38
2023-02-13T02:47:54.906Z,38.15
2023-02-13T02:50:34.230Z,44.88
2023-02-13T02:53:17.348Z,43.72
2023-02-13T02:55:45.121Z,42.28
2023-02-13T02:58:44.097Z,39.63
2023-02-13T03:01:32.082Z,41.97
2023-02-13T03:04:19.098Z,36.35
2023-02-13T03:06:54.961Z,42.72
2023-02-13T03:09:47.517Z,44.17
2023-02-13T03:12:37.912Z,40.65
2023-02-13T03:15:05.423Z,33.10
2023-02-13T03:17:51.474Z,38.90
2023-02-13T03:21:09.570Z,32.67
2023-02-13T03:23:44.894Z,40.92
2023-02-13T03:26:33.327Z,35.42
2023-02-13T03:29:34.276Z,32.60
2023-02-13T03:32:26.845Z,35.85
2023-02-13T03:35:34.517Z,36.15
2023-02-13T03:38:09.626Z,35.40
2023-02-13T03:41:04.472Z,35.47
2023-02-13T03:43:42.558Z,38.60
2023-02-13T03:46:11.227Z,41.22
2023-02-13T03:48:59.116Z,39.72
2023-02-13T03:51:32.427Z,36.63
2023-02-13T03:54:01.943Z,44.25
2023-02-13T03:56:51.130Z,39.95
2023-02-13T03:59:25.122Z,45.85
2023-02-13T04:02:18.511Z,33.38
2023-02-13T04:04:51.451Z,34.90
2023-02-13T04:07:30.829Z,37.97
2023-02-13T04:10:05.702Z,42.03
2023-02-13T04:12:58.697Z,37.10
2023-02-13T04:15:34.600Z,40.13
2023-02-13T04:18:21.971Z,34.30
2023-02-13T04:20:48.951Z,34.22
2023-02-13T04:23:16.447Z,37.83
2023-02-13T04:25:47.113Z,37.85
2023-02-13T04:28:14.494Z,39.63
2023-02-13T04:30:41.947Z,36.03
2023-02-13T04:33:09.363Z,39.70
2023-02-13T04:35:36.672Z,44.78
2023-02-13T04:38:03.677Z,44.00
2023-02-13T04:40:31.178Z,40.90
2023-02-13T04:42:58.513Z,42.47
2023-02-13T04:45:25.828Z,39.58
2023-02-13T04:47:54.288Z,42.78
2023-02-13T04:50:22.390Z,41.55
2023-02-13T04:52:54.353Z,47.22
2023-02-13T04:55:21.749Z,43.15
2023-02-13T04:57:49.053Z,44.38
2023-02-13T05:00:16.425Z,40.00
2023-02-13T05:02:43.240Z,45.70
2023-02-13T05:05:10.493Z,43.75
2023-02-13T05:07:37.804Z,39.03
2023-02-13T05:10:05.295Z,45.90
2023-02-13T05:12:32.101Z,36.65
2023-02-13T05:14:59.776Z,39.88
2023-02-13T05:17:28.336Z,40.90
2023-02-13T05:19:55.277Z,43.40
2023-02-13T05:22:41.208Z,41.20
2023-02-13T05:25:08.531Z,36.65
2023-02-13T05:27:35.376Z,49.83
2023-02-13T05:30:02.615Z,33.13
2023-02-13T05:32:29.871Z,38.83
2023-02-13T05:34:57.143Z,44.38
2023-02-13T05:37:24.395Z,43.75
2023-02-13T05:39:51.644Z,39.88
2023-02-13T05:42:18.529Z,43.25
2023-02-13T05:44:45.806Z,38.42
2023-02-13T05:47:13.046Z,42.15
2023-02-13T05:49:40.266Z,42.88
2023-02-13T05:52:08.101Z,41.33
2023-02-13T05:54:35.376Z,44.53
2023-02-13T05:57:03.513Z,36.85
2023-02-13T05:59:30.408Z,43.17
2023-02-13T06:01:57.622Z,36.92
2023-02-13T06:04:24.877Z,42.05
2023-02-13T06:06:51.755Z,33.70
2023-02-13T06:09:19.014Z,42.03
2023-02-13T06:11:45.965Z,42.42
2023-02-13T06:14:14.689Z,38.33
2023-02-13T06:16:42.184Z,38.35
2023-02-13T06:19:09.167Z,39.20
2023-02-13T06:21:38.108Z,38.85
2023-02-13T06:24:07.563Z,43.58
2023-02-13T06:26:35.286Z,36.85
2023-02-13T06:29:02.412Z,42.92
2023-02-13T06:31:29.763Z,38.90
2023-02-13T06:33:56.645Z,33.95
2023-02-13T06:36:23.948Z,40.28
2023-02-13T06:38:51.211Z,39.72
2023-02-13T06:41:18.139Z,40.28
2023-02-13T06:43:45.364Z,44.17
2023-02-13T06:46:12.700Z,46.28
2023-02-13T06:48:39.976Z,44.33
2023-02-13T06:51:06.890Z,40.03
2023-02-13T06:53:34.182Z,36.75
2023-02-13T06:56:06.165Z,44.60
2023-02-13T06:58:34.839Z,44.92
2023-02-13T07:01:01.823Z,40.28
2023-02-13T07:03:29.115Z,38.38
2023-02-13T07:05:56.676Z,42.83
2023-02-13T07:08:23.715Z,36.22
2023-02-13T07:10:50.581Z,38.55
2023-02-13T07:13:17.957Z,45.63
2023-02-13T07:15:45.314Z,36.38
2023-02-13T07:18:12.140Z,38.90
2023-02-13T07:20:39.088Z,32.22
2023-02-13T07:23:07.531Z,43.08
2023-02-13T07:25:34.770Z,40.53
2023-02-13T07:28:06.089Z,39.22
2023-02-13T07:30:33.856Z,41.08
2023-02-13T07:33:05.169Z,41.83
2023-02-13T07:35:32.727Z,40.40
2023-02-13T07:38:00.742Z,44.63
2023-02-13T07:40:28.514Z,38.33
2023-02-13T07:42:56.037Z,43.40
2023-02-13T07:45:23.309Z,73.82
2023-02-13T07:47:50.342Z,49.08
2023-02-13T07:50:17.618Z,47.28
2023-02-13T07:52:44.831Z,36.33
2023-02-13T07:55:12.083Z,40.78
2023-02-13T07:57:39.333Z,44.97
2023-02-13T08:00:06.896Z,41.88
2023-02-13T08:02:33.823Z,41.72
2023-02-13T08:05:00.658Z,42.00
2023-02-13T08:07:27.881Z,42.47
2023-02-13T08:10:13.200Z,39.33
2023-02-13T08:12:40.478Z,33.67
2023-02-13T08:15:08.094Z,42.67
2023-02-13T08:17:35.307Z,45.00
2023-02-13T08:20:02.559Z,40.95
2023-02-13T08:22:29.403Z,43.03
2023-02-13T08:24:56.648Z,35.60
2023-02-13T08:27:24.277Z,41.70
2023-02-13T08:29:51.321Z,37.90
2023-02-13T08:32:18.821Z,41.80
2023-02-13T08:34:45.700Z,35.70
2023-02-13T08:37:12.973Z,37.47
2023-02-13T08:39:39.919Z,33.15
2023-02-13T08:42:07.376Z,36.50
2023-02-13T08:44:34.257Z,31.05
2023-02-13T08:47:03.918Z,34.83
2023-02-13T08:49:31.527Z,51.50
2023-02-13T08:51:58.327Z,29.60
2023-02-13T08:54:25.640Z,30.55
2023-02-13T08:56:52.873Z,28.48
2023-02-13T08:59:20.240Z,34.60
2023-02-13T09:01:47.870Z,26.58
2023-02-13T09:04:16.152Z,26.75
2023-02-13T09:06:43.417Z,27.83
2023-02-13T09:09:11.028Z,30.23
2023-02-13T09:11:37.888Z,30.88
2023-02-13T09:14:05.112Z,30.15
2023-02-13T09:16:32.629Z,23.52
2023-02-13T09:18:59.669Z,28.83
2023-02-13T09:21:26.922Z,26.92
2023-02-13T09:23:56.532Z,26.83
2023-02-13T09:26:23.358Z,27.02
2023-02-13T09:28:50.790Z,24.27
2023-02-13T09:31:20.493Z,25.40
2023-02-13T09:33:48.791Z,24.88
2023-02-13T09:36:20.060Z,25.65
2023-02-13T09:38:48.719Z,29.30
2023-02-13T09:41:17.491Z,25.05
2023-02-13T09:43:52.284Z,33.95
2023-02-13T09:46:23.834Z,27.42
2023-02-13T09:48:54.754Z,28.30
2023-02-13T09:51:23.720Z,17.77
2023-02-13T09:54:03.524Z,26.67
2023-02-13T09:56:42.234Z,26.10
2023-02-13T09:59:33.127Z,22.65
2023-02-13T10:02:14.415Z,20.25
2023-02-13T10:04:57.196Z,23.48
2023-02-13T10:07:40.978Z,22.98
2023-02-13T10:10:18.232Z,20.45
2023-02-13T10:12:57.530Z,21.48
2023-02-13T10:15:52.032Z,24.52
2023-02-13T10:18:23.647Z,26.77
2023-02-13T10:20:57.626Z,28.77
2023-02-13T10:23:40.571Z,25.33
2023-02-13T10:26:43.610Z,20.65
2023-02-13T10:29:41.686Z,17.07
2023-02-13T10:32:16.511Z,20.67
2023-02-13T10:34:45.905Z,16.88
2023-02-13T10:37:19.664Z,21.40
2023-02-13T10:39:49.808Z,24.02
2023-02-13T10:42:28.744Z,24.20
2023-02-13T10:45:06.598Z,24.75
2023-02-13T10:48:08.396Z,23.67
2023-02-13T10:51:09.939Z,21.42
2023-02-13T10:54:04.470Z,16.20
2023-02-13T10:56:51.677Z,21.02
2023-02-13T10:59:51.237Z,20.27
2023-02-13T11:02:26.285Z,21.55
2023-02-13T11:04:59.358Z,21.83
2023-02-13T11:07:27.368Z,18.48
2023-02-13T11:10:00.153Z,18.77
2023-02-13T11:12:27.579Z,16.92
2023-02-13T11:15:00.788Z,15.68
2023-02-13T11:20:00.001Z,14.95
2023-02-13T11:22:42.795Z,18.42
2023-02-13T11:25:22.814Z,17.75
2023-02-13T11:27:54.856Z,17.65
2023-02-13T11:30:33.635Z,17.05
2023-02-13T11:33:17.895Z,17.33
2023-02-13T11:35:46.827Z,17.50
2023-02-13T11:38:18.309Z,46.55
2023-02-13T11:40:47.877Z,15.60
2023-02-13T11:43:28.484Z,15.75
2023-02-13T11:46:06.587Z,18.90
2023-02-13T11:48:33.997Z,19.08
2023-02-13T11:51:01.468Z,18.20
2023-02-13T11:53:32.926Z,21.08
2023-02-13T11:56:14.362Z,21.45
2023-02-13T11:58:42.500Z,15.07
2023-02-13T12:01:12.682Z,14.57
2023-02-13T12:03:41.728Z,16.15
2023-02-13T12:06:15.026Z,14.45
2023-02-13T12:08:45.948Z,13.85
2023-02-13T12:11:35.415Z,12.73
2023-02-13T12:14:03.065Z,13.27
2023-02-13T12:16:40.086Z,16.98
2023-02-13T12:19:14.960Z,10.32
2023-02-13T12:21:50.799Z,14.20
2023-02-13T12:24:23.612Z,13.65
2023-02-13T12:27:19.461Z,10.15
2023-02-13T12:30:04.961Z,12.70
2023-02-13T12:32:49.137Z,10.48
2023-02-13T12:35:34.417Z,7.05
2023-02-13T12:38:11.750Z,7.40
2023-02-13T12:41:07.560Z,8.50
2023-02-13T12:43:55.469Z,6.28
2023-02-13T12:46:27.443Z,14.23
2023-02-13T12:49:09.345Z,7.82
2023-02-13T12:51:54.798Z,9.88
2023-02-13T12:54:57.151Z,10.55
2023-02-13T12:57:24.495Z,13.55
2023-02-13T13:00:19.909Z,13.65
2023-02-13T13:02:55.191Z,13.30
2023-02-13T13:05:22.383Z,11.77
2023-02-13T13:08:01.575Z,8.85
2023-02-13T13:11:08.911Z,10.63
2023-02-13T13:13:47.591Z,12.98
2023-02-13T13:16:16.751Z,9.30
2023-02-13T13:18:52.605Z,10.88
2023-02-13T13:21:46.187Z,12.45
2023-02-13T13:26:57.458Z,12.02
2023-02-13T13:29:29.674Z,11.95
2023-02-13T13:32:03.817Z,12.77
2023-02-13T13:34:32.730Z,17.35
2023-02-13T13:37:20.557Z,14.98
2023-02-13T13:39:58.295Z,9.60
2023-02-13T13:42:54.237Z,11.75
2023-02-13T13:45:36.470Z,13.43
2023-02-13T13:48:24.527Z,11.90
2023-02-13T13:50:52.266Z,15.68
2023-02-13T13:53:23.291Z,14.38
2023-02-13T13:55:50.567Z,19.52
2023-02-13T13:58:35.877Z,16.55
2023-02-13T14:01:17.663Z,15.10
2023-02-13T14:03:46.411Z,14.15
2023-02-13T14:06:15.693Z,14.98
2023-02-13T14:08:44.428Z,13.75
2023-02-13T14:11:30.024Z,21.02
2023-02-13T14:13:57.476Z,12.95
2023-02-13T14:16:45.057Z,17.85
2023-02-13T14:19:32.580Z,12.10
2023-02-13T14:22:33.625Z,12.57
2023-02-13T14:25:03.806Z,13.63
2023-02-13T14:27:39.638Z,13.35
2023-02-13T14:30:26.739Z,14.23
2023-02-13T14:32:54.410Z,12.70
2023-02-13T14:35:26.109Z,19.45
2023-02-13T14:37:59.326Z,13.55
2023-02-13T14:40:29.073Z,14.30
2023-02-13T14:43:22.713Z,12.38
2023-02-13T14:48:48.930Z,16.00
2023-02-13T14:51:32.008Z,24.40
2023-02-13T14:54:17.856Z,17.58
2023-02-13T14:56:47.987Z,14.07
2023-02-13T14:59:18.770Z,13.75
2023-02-13T15:01:52.865Z,14.07
2023-02-13T15:04:45.052Z,16.42
2023-02-13T15:07:23.394Z,14.32
2023-02-13T15:09:53.431Z,15.60
2023-02-13T15:12:37.415Z,12.85
2023-02-13T15:15:32.173Z,15.77
2023-02-13T15:18:02.395Z,21.83
2023-02-13T15:20:33.601Z,16.40
2023-02-13T15:23:00.999Z,16.05
2023-02-13T15:25:37.744Z,20.83
2023-02-13T15:28:07.329Z,15.98
2023-02-13T15:30:36.430Z,13.68
2023-02-13T15:33:15.908Z,21.73
2023-02-13T15:35:43.002Z,17.08
2023-02-13T15:38:26.247Z,13.75
2023-02-13T15:41:02.981Z,21.73
2023-02-13T15:43:30.202Z,31.05
2023-02-13T15:46:01.513Z,25.80
2023-02-13T15:48:30.656Z,21.60
2023-02-13T15:50:58.772Z,22.13
2023-02-13T15:53:26.250Z,21.92
2023-02-13T15:56:01.835Z,22.35
2023-02-13T15:58:34.188Z,23.52
2023-02-13T16:01:05.732Z,24.58
2023-02-13T16:03:34.622Z,21.20
2023-02-13T16:06:02.725Z,25.02
2023-02-13T16:08:33.118Z,26.75
2023-02-13T16:11:31.929Z,28.00
2023-02-13T16:14:12.974Z,23.77
2023-02-13T16:16:47.472Z,19.90
2023-02-13T16:19:24.233Z,22.13
2023-02-13T16:21:52.389Z,27.40
2023-02-13T16:24:20.961Z,25.50
2023-02-13T16:26:48.361Z,21.77
2023-02-13T16:29:21.280Z,17.30
2023-02-13T16:31:50.522Z,18.55
2023-02-13T16:34:20.497Z,15.75
2023-02-13T16:36:47.611Z,19.58
2023-02-13T16:39:23.624Z,15.45
2023-02-13T16:41:52.225Z,25.13
2023-02-13T16:44:24.252Z,22.85
2023-02-13T16:46:57.122Z,20.95
2023-02-13T16:49:30.485Z,18.23
2023-02-13T16:52:15.248Z,18.67
2023-02-13T16:54:45.194Z,25.58
2023-02-13T16:57:25.339Z,20.83
2023-02-13T17:00:01.871Z,21.35
2023-02-13T17:02:41.142Z,25.40
2023-02-13T17:05:08.405Z,26.60
2023-02-13T17:07:37.838Z,22.98
2023-02-13T17:10:31.454Z,23.88
2023-02-13T17:15:29.714Z,26.38
2023-02-13T17:17:56.987Z,28.95
2023-02-13T17:20:32.235Z,20.73
2023-02-13T17:23:01.561Z,26.25
2023-02-13T17:25:28.862Z,24.33
2023-02-13T17:27:58.166Z,27.10
2023-02-13T17:30:29.481Z,27.02
2023-02-13T17:33:07.712Z,22.95
2023-02-13T17:35:35.575Z,27.02
2023-02-13T17:38:03.127Z,24.75
2023-02-13T17:40:31.896Z,24.08
2023-02-13T17:42:59.757Z,28.42
2023-02-13T17:45:29.421Z,26.45
2023-02-13T17:47:57.945Z,26.10
2023-02-13T17:50:26.698Z,22.65
2023-02-13T17:52:53.981Z,28.00
2023-02-13T17:55:22.263Z,31.23
2023-02-13T17:57:49.586Z,30.33
2023-02-13T18:00:17.467Z,26.60
2023-02-13T18:02:44.364Z,23.95
2023-02-13T18:05:11.946Z,24.23
2023-02-13T18:07:40.945Z,24.63
2023-02-13T18:10:16.986Z,22.77
2023-02-13T18:12:44.351Z,25.42
2023-02-13T18:15:12.113Z,23.27
2023-02-13T18:17:39.747Z,26.83
2023-02-13T18:20:08.229Z,27.48
2023-02-13T18:22:35.445Z,22.88
2023-02-13T18:25:02.750Z,21.65
2023-02-13T18:27:30.092Z,27.30
2023-02-13T18:29:57.273Z,27.50
2023-02-13T18:32:25.245Z,26.75
2023-02-13T18:34:52.453Z,27.85
2023-02-13T18:37:19.708Z,39.13
2023-02-13T18:39:46.677Z,24.10
2023-02-13T18:42:13.999Z,25.83
2023-02-13T18:44:41.522Z,31.48
2023-02-13T18:47:08.498Z,27.50
2023-02-13T18:49:35.738Z,30.63
2023-02-13T18:52:02.629Z,22.83
2023-02-13T18:54:30.074Z,29.45
2023-02-13T18:56:57.191Z,26.08
2023-02-13T18:59:24.047Z,27.58
2023-02-13T19:01:51.548Z,31.95
2023-02-13T19:04:18.817Z,27.83
2023-02-13T19:06:46.091Z,26.08
2023-02-13T19:09:13.495Z,30.73
2023-02-13T19:11:40.884Z,29.38
2023-02-13T19:14:07.973Z,36.55
2023-02-13T19:16:35.824Z,27.30
2023-02-13T19:19:05.024Z,30.23
2023-02-13T19:21:34.435Z,28.27
2023-02-13T19:24:04.253Z,26.75
2023-02-13T19:26:31.421Z,29.73
2023-02-13T19:28:58.992Z,24.42
2023-02-13T19:31:30.700Z,23.67
2023-02-13T19:33:59.506Z,25.17
2023-02-13T19:36:28.305Z,27.60
2023-02-13T19:38:57.948Z,26.08
2023-02-13T19:41:25.458Z,25.05
2023-02-13T19:43:55.523Z,28.33
2023-02-13T19:46:32.306Z,25.92
2023-02-13T19:49:00.158Z,26.58
2023-02-13T19:51:29.415Z,26.85
2023-02-13T19:54:06.483Z,23.42
2023-02-13T19:56:35.831Z,25.40
2023-02-13T19:59:02.993Z,23.85
2023-02-13T20:01:30.731Z,27.13
2023-02-13T20:03:57.945Z,23.10
2023-02-13T20:06:28.262Z,26.92
2023-02-13T20:08:59.726Z,20.67
2023-02-13T20:11:27.230Z,24.13
2023-02-13T20:13:56.297Z,27.70
2023-02-13T20:16:23.572Z,21.73
2023-02-13T20:18:50.989Z,21.88
2023-02-13T20:21:18.734Z,26.42
2023-02-13T20:23:50.736Z,21.23
2023-02-13T20:26:18.109Z,25.88
2023-02-13T20:28:46.235Z,22.10
2023-02-13T20:31:19.462Z,24.23
2023-02-13T20:33:47.529Z,23.65
2023-02-13T20:36:25.593Z,23.48
2023-02-13T20:38:54.212Z,23.55
2023-02-13T20:41:29.528Z,26.30
2023-02-13T20:44:01.107Z,23.20
2023-02-13T20:46:39.376Z,19.83
2023-02-13T20:49:06.729Z,25.05
2023-02-13T20:51:34.687Z,22.05
2023-02-13T20:54:01.797Z,17.13
2023-02-13T20:56:28.914Z,18.52
2023-02-13T20:58:58.418Z,21.17
2023-02-13T21:01:30.997Z,20.83
2023-02-13T21:03:58.244Z,18.48
2023-02-13T21:06:30.956Z,20.83
2023-02-13T21:08:58.268Z,16.92
2023-02-13T21:11:25.718Z,16.67
2023-02-13T21:13:52.608Z,18.20
2023-02-13T21:16:22.596Z,18.35
2023-02-13T21:18:51.472Z,17.98
2023-02-13T21:21:19.699Z,18.83
2023-02-13T21:23:47.108Z,17.17
2023-02-13T21:26:18.212Z,20.17
2023-02-13T21:28:47.029Z,21.55
2023-02-13T21:31:17.311Z,19.15
2023-02-13T21:33:44.909Z,14.93
2023-02-13T21:36:13.010Z,17.13
2023-02-13T21:38:40.766Z,15.15
2023-02-13T21:41:13.705Z,16.20
2023-02-13T21:43:42.234Z,19.33
2023-02-13T21:46:10.843Z,21.20
2023-02-13T21:48:38.989Z,18.95
2023-02-13T21:51:11.253Z,15.60
2023-02-13T21:53:38.944Z,16.00
2023-02-13T21:56:08.172Z,15.27
2023-02-13T21:58:36.490Z,13.80
2023-02-13T22:01:20.422Z,17.10
2023-02-13T22:03:52.822Z,11.77
2023-02-13T22:06:21.064Z,14.10
2023-02-13T22:08:48.546Z,11.90
2023-02-13T22:11:17.476Z,12.48
2023-02-13T22:13:44.454Z,11.35
2023-02-13T22:16:13.195Z,10.35
2023-02-13T22:18:45.249Z,14.05
2023-02-13T22:21:14.950Z,15.52
2023-02-13T22:23:43.446Z,15.45
2023-02-13T22:26:25.246Z,13.02
2023-02-13T22:28:53.152Z,15.93
2023-02-13T22:31:24.123Z,17.63
2023-02-13T22:34:02.985Z,15.60
2023-02-13T22:36:32.640Z,17.92
2023-02-13T22:38:59.909Z,16.58
2023-02-13T22:41:27.532Z,15.35
2023-02-13T22:43:54.735Z,16.25
2023-02-13T22:46:27.874Z,16.85
2023-02-13T22:51:28.173Z,17.42
2023-02-13T22:56:23.837Z,16.08
2023-02-13T22:58:51.150Z,16.25
2023-02-13T23:01:20.449Z,15.60
2023-02-13T23:03:47.953Z,12.23
2023-02-13T23:06:15.878Z,12.30
2023-02-13T23:08:43.156Z,102.35
2023-02-13T23:11:35.232Z,15.65
2023-02-13T23:14:02.554Z,14.07
2023-02-13T23:16:49.825Z,16.55
2023-02-13T23:19:16.667Z,14.98
2023-02-13T23:21:43.967Z,14.30
2023-02-13T23:24:11.598Z,14.27
2023-02-13T23:26:38.829Z,12.93
2023-02-13T23:29:08.135Z,12.82
2023-02-13T23:31:35.499Z,16.23
2023-02-13T23:34:02.388Z,23.08
2023-02-13T23:36:29.572Z,15.43
2023-02-13T23:38:56.849Z,12.88
2023-02-13T23:41:24.088Z,20.88
2023-02-13T23:43:51.343Z,15.35
2023-02-13T23:46:18.753Z,16.17
2023-02-13T23:48:46.365Z,11.98
2023-02-13T23:51:13.954Z,15.65
2023-02-13T23:53:41.029Z,12.07
2023-02-13T23:56:08.134Z,12.05
2023-02-13T23:58:35.358Z,11.75
